sensor_id;sensor_type;location;lat;lon;timestamp;P1;P2;P0
12246;PMS7003;6186;52.022;4.692;2024-01-07T00:00:45;11.00;8.00;4.00
12246;PMS7003;6186;52.022;4.692;2024-01-07T00:03:10;9.33;9.33;5.00
12246;PMS7003;6186;52.022;4.692;2024-01-07T00:05:36;10.33;10.00;4.67
12246;PMS7003;6186;52.022;4.692;2024-01-07T00:08:01;9.00;9.00;5.00
12246;PMS7003;6186;52.022;4.692;2024-01-07T00:10:26;10.67;9.33;4.00
12246;PMS7003;6186;52.022;4.692;2024-01-07T00:12:51;11.33;9.00;4.00
12246;PMS7003;6186;52.022;4.692;2024-01-07T00:15:17;9.00;9.00;5.00
12246;PMS7003;6186;52.022;4.692;2024-01-07T00:17:42;10.00;10.00;5.00
12246;PMS7003;6186;52.022;4.692;2024-01-07T00:20:07;11.00;10.00;5.00
12246;PMS7003;6186;52.022;4.692;2024-01-07T00:22:33;11.67;11.00;4.67
12246;PMS7003;6186;52.022;4.692;2024-01-07T00:24:58;9.00;9.00;4.00
12246;PMS7003;6186;52.022;4.692;2024-01-07T00:27:23;12.67;9.33;5.00
12246;PMS7003;6186;52.022;4.692;2024-01-07T00:29:48;11.00;11.00;5.00
12246;PMS7003;6186;52.022;4.692;2024-01-07T00:32:13;14.00;10.00;4.00
12246;PMS7003;6186;52.022;4.692;2024-01-07T00:34:39;11.67;8.67;4.00
12246;PMS7003;6186;52.022;4.692;2024-01-07T00:37:04;11.67;10.33;4.67
12246;PMS7003;6186;52.022;4.692;2024-01-07T00:39:29;8.33;8.33;4.00
12246;PMS7003;6186;52.022;4.692;2024-01-07T00:41:54;11.67;10.33;5.00
12246;PMS7003;6186;52.022;4.692;2024-01-07T00:44:19;15.00;11.00;5.00
12246;PMS7003;6186;52.022;4.692;2024-01-07T00:46:45;10.00;9.33;5.00
12246;PMS7003;6186;52.022;4.692;2024-01-07T00:49:10;10.00;8.33;5.00
12246;PMS7003;6186;52.022;4.692;2024-01-07T00:51:35;11.00;8.67;4.33
12246;PMS7003;6186;52.022;4.692;2024-01-07T00:54:00;8.00;8.00;4.00
12246;PMS7003;6186;52.022;4.692;2024-01-07T00:56:26;11.67;9.00;5.00
12246;PMS7003;6186;52.022;4.692;2024-01-07T00:58:51;14.33;10.67;4.33
12246;PMS7003;6186;52.022;4.692;2024-01-07T01:01:16;9.33;8.67;4.00
12246;PMS7003;6186;52.022;4.692;2024-01-07T01:03:41;12.33;10.33;5.00
12246;PMS7003;6186;52.022;4.692;2024-01-07T01:06:07;9.33;9.33;4.00
12246;PMS7003;6186;52.022;4.692;2024-01-07T01:08:32;9.33;8.67;4.00
12246;PMS7003;6186;52.022;4.692;2024-01-07T01:10:57;10.67;9.33;4.00
12246;PMS7003;6186;52.022;4.692;2024-01-07T01:13:22;8.67;8.00;4.33
12246;PMS7003;6186;52.022;4.692;2024-01-07T01:15:47;8.67;8.33;5.00
12246;PMS7003;6186;52.022;4.692;2024-01-07T01:18:13;8.33;8.33;5.00
12246;PMS7003;6186;52.022;4.692;2024-01-07T01:20:38;11.00;9.33;5.00
12246;PMS7003;6186;52.022;4.692;2024-01-07T01:23:03;9.67;8.67;4.00
12246;PMS7003;6186;52.022;4.692;2024-01-07T01:25:28;10.00;8.67;4.67
12246;PMS7003;6186;52.022;4.692;2024-01-07T01:27:54;11.00;10.00;5.00
12246;PMS7003;6186;52.022;4.692;2024-01-07T01:30:19;8.33;8.00;4.00
12246;PMS7003;6186;52.022;4.692;2024-01-07T01:32:44;11.00;8.33;4.00
12246;PMS7003;6186;52.022;4.692;2024-01-07T01:35:09;12.00;10.33;4.67
12246;PMS7003;6186;52.022;4.692;2024-01-07T01:37:34;9.33;8.00;4.00
12246;PMS7003;6186;52.022;4.692;2024-01-07T01:40:00;11.33;9.67;5.00
12246;PMS7003;6186;52.022;4.692;2024-01-07T01:42:25;12.33;11.00;5.00
12246;PMS7003;6186;52.022;4.692;2024-01-07T01:44:50;12.67;11.33;5.00
12246;PMS7003;6186;52.022;4.692;2024-01-07T01:47:15;11.00;11.00;5.00
12246;PMS7003;6186;52.022;4.692;2024-01-07T01:49:41;12.00;11.00;4.33
12246;PMS7003;6186;52.022;4.692;2024-01-07T01:52:07;12.00;12.00;6.00
12246;PMS7003;6186;52.022;4.692;2024-01-07T01:54:33;14.00;11.75;5.00
12246;PMS7003;6186;52.022;4.692;2024-01-07T01:56:59;15.00;12.67;6.00
12246;PMS7003;6186;52.022;4.692;2024-01-07T01:59:24;12.33;10.67;5.00
12246;PMS7003;6186;52.022;4.692;2024-01-07T02:01:50;12.00;11.75;5.25
12246;PMS7003;6186;52.022;4.692;2024-01-07T02:04:15;13.00;11.33;4.67
12246;PMS7003;6186;52.022;4.692;2024-01-07T02:06:41;11.00;8.00;3.33
12246;PMS7003;6186;52.022;4.692;2024-01-07T02:09:06;12.00;10.67;5.00
12246;PMS7003;6186;52.022;4.692;2024-01-07T02:11:32;11.33;8.00;4.33
12246;PMS7003;6186;52.022;4.692;2024-01-07T02:13:57;9.33;8.67;4.00
12246;PMS7003;6186;52.022;4.692;2024-01-07T02:16:22;7.67;7.00;2.00
12246;PMS7003;6186;52.022;4.692;2024-01-07T02:18:47;11.00;9.33;4.00
12246;PMS7003;6186;52.022;4.692;2024-01-07T02:21:13;10.67;10.00;4.33
12246;PMS7003;6186;52.022;4.692;2024-01-07T02:23:39;12.00;10.75;4.00
12246;PMS7003;6186;52.022;4.692;2024-01-07T02:26:04;11.33;9.67;4.00
12246;PMS7003;6186;52.022;4.692;2024-01-07T02:28:30;11.00;10.00;5.00
12246;PMS7003;6186;52.022;4.692;2024-01-07T02:30:56;10.75;10.00;4.75
12246;PMS7003;6186;52.022;4.692;2024-01-07T02:33:21;10.67;10.00;4.00
12246;PMS7003;6186;52.022;4.692;2024-01-07T02:35:46;11.00;10.00;4.00
12246;PMS7003;6186;52.022;4.692;2024-01-07T02:38:12;11.33;9.67;4.00
12246;PMS7003;6186;52.022;4.692;2024-01-07T02:40:37;11.00;10.33;5.00
12246;PMS7003;6186;52.022;4.692;2024-01-07T02:43:02;11.33;11.00;4.67
12246;PMS7003;6186;52.022;4.692;2024-01-07T02:45:28;8.67;8.00;4.00
12246;PMS7003;6186;52.022;4.692;2024-01-07T02:47:53;8.67;8.67;4.00
12246;PMS7003;6186;52.022;4.692;2024-01-07T02:50:18;8.33;8.33;4.33
12246;PMS7003;6186;52.022;4.692;2024-01-07T02:52:43;10.00;8.67;4.00
12246;PMS7003;6186;52.022;4.692;2024-01-07T02:55:08;11.00;11.00;5.00
12246;PMS7003;6186;52.022;4.692;2024-01-07T02:57:34;14.00;11.00;4.00
12246;PMS7003;6186;52.022;4.692;2024-01-07T02:59:59;10.00;8.00;4.00
12246;PMS7003;6186;52.022;4.692;2024-01-07T03:02:24;11.00;10.00;4.00
12246;PMS7003;6186;52.022;4.692;2024-01-07T03:04:50;13.67;11.00;4.00
12246;PMS7003;6186;52.022;4.692;2024-01-07T03:07:15;12.33;9.33;5.00
12246;PMS7003;6186;52.022;4.692;2024-01-07T03:09:40;14.33;9.67;5.00
12246;PMS7003;6186;52.022;4.692;2024-01-07T03:12:05;12.33;10.00;5.67
12246;PMS7003;6186;52.022;4.692;2024-01-07T03:14:31;11.67;9.00;4.33
12246;PMS7003;6186;52.022;4.692;2024-01-07T03:16:56;10.00;10.00;4.00
12246;PMS7003;6186;52.022;4.692;2024-01-07T03:19:21;11.33;10.00;4.00
12246;PMS7003;6186;52.022;4.692;2024-01-07T03:21:47;10.00;8.00;4.33
12246;PMS7003;6186;52.022;4.692;2024-01-07T03:24:13;9.50;8.00;4.00
12246;PMS7003;6186;52.022;4.692;2024-01-07T03:26:38;10.33;10.00;5.00
12246;PMS7003;6186;52.022;4.692;2024-01-07T03:29:03;10.33;8.67;4.00
12246;PMS7003;6186;52.022;4.692;2024-01-07T03:31:28;13.00;10.00;4.00
12246;PMS7003;6186;52.022;4.692;2024-01-07T03:33:54;15.33;13.00;5.00
12246;PMS7003;6186;52.022;4.692;2024-01-07T03:36:19;13.00;12.67;7.00
12246;PMS7003;6186;52.022;4.692;2024-01-07T03:38:44;14.67;12.00;7.00
12246;PMS7003;6186;52.022;4.692;2024-01-07T03:41:15;15.33;13.00;7.00
12246;PMS7003;6186;52.022;4.692;2024-01-07T03:43:47;17.25;14.00;7.00
12246;PMS7003;6186;52.022;4.692;2024-01-07T03:46:13;11.75;11.00;7.00
12246;PMS7003;6186;52.022;4.692;2024-01-07T03:48:39;16.00;13.67;7.00
12246;PMS7003;6186;52.022;4.692;2024-01-07T03:51:05;15.25;14.50;7.00
12246;PMS7003;6186;52.022;4.692;2024-01-07T03:53:30;14.33;13.00;5.67
12246;PMS7003;6186;52.022;4.692;2024-01-07T03:55:56;11.00;11.00;7.00
12246;PMS7003;6186;52.022;4.692;2024-01-07T03:58:21;14.67;14.00;5.00
12246;PMS7003;6186;52.022;4.692;2024-01-07T04:00:46;13.67;12.33;7.00
12246;PMS7003;6186;52.022;4.692;2024-01-07T04:03:11;12.33;10.67;5.00
12246;PMS7003;6186;52.022;4.692;2024-01-07T04:05:37;11.67;11.67;6.33
12246;PMS7003;6186;52.022;4.692;2024-01-07T04:08:02;10.00;10.00;5.00
12246;PMS7003;6186;52.022;4.692;2024-01-07T04:10:28;12.33;11.33;5.00
12246;PMS7003;6186;52.022;4.692;2024-01-07T04:12:53;15.67;12.33;5.67
12246;PMS7003;6186;52.022;4.692;2024-01-07T04:15:19;13.33;12.00;4.67
12246;PMS7003;6186;52.022;4.692;2024-01-07T04:17:45;12.00;12.00;6.50
12246;PMS7003;6186;52.022;4.692;2024-01-07T04:20:12;11.00;11.00;5.00
12246;PMS7003;6186;52.022;4.692;2024-01-07T04:22:38;11.25;10.75;4.50
12246;PMS7003;6186;52.022;4.692;2024-01-07T04:25:04;12.67;11.00;5.00
12246;PMS7003;6186;52.022;4.692;2024-01-07T04:27:29;11.67;10.33;5.67
12246;PMS7003;6186;52.022;4.692;2024-01-07T04:29:54;10.67;8.00;4.00
12246;PMS7003;6186;52.022;4.692;2024-01-07T04:32:19;11.33;11.00;4.33
12246;PMS7003;6186;52.022;4.692;2024-01-07T04:34:45;11.00;10.67;5.00
12246;PMS7003;6186;52.022;4.692;2024-01-07T04:37:10;11.33;11.33;5.67
12246;PMS7003;6186;52.022;4.692;2024-01-07T04:39:35;14.67;10.00;5.00
12246;PMS7003;6186;52.022;4.692;2024-01-07T04:42:01;11.67;11.00;5.00
12246;PMS7003;6186;52.022;4.692;2024-01-07T04:44:26;16.33;13.67;4.33
12246;PMS7003;6186;52.022;4.692;2024-01-07T04:46:51;10.67;8.67;4.00
12246;PMS7003;6186;52.022;4.692;2024-01-07T04:49:16;10.00;10.00;4.33
12246;PMS7003;6186;52.022;4.692;2024-01-07T04:51:42;10.67;8.00;2.67
12246;PMS7003;6186;52.022;4.692;2024-01-07T04:54:07;8.33;8.33;4.00
12246;PMS7003;6186;52.022;4.692;2024-01-07T04:56:32;13.00;11.33;5.00
12246;PMS7003;6186;52.022;4.692;2024-01-07T04:58:58;10.75;10.25;4.75
12246;PMS7003;6186;52.022;4.692;2024-01-07T05:01:23;8.67;8.00;4.00
12246;PMS7003;6186;52.022;4.692;2024-01-07T05:03:49;14.33;11.00;5.00
12246;PMS7003;6186;52.022;4.692;2024-01-07T05:06:14;12.00;11.33;4.67
12246;PMS7003;6186;52.022;4.692;2024-01-07T05:08:40;15.33;9.33;4.00
12246;PMS7003;6186;52.022;4.692;2024-01-07T05:11:05;11.50;10.25;5.00
12246;PMS7003;6186;52.022;4.692;2024-01-07T05:13:31;11.67;10.33;4.00
12246;PMS7003;6186;52.022;4.692;2024-01-07T05:15:56;15.33;13.00;7.00
12246;PMS7003;6186;52.022;4.692;2024-01-07T05:18:22;8.00;8.00;4.00
12246;PMS7003;6186;52.022;4.692;2024-01-07T05:20:48;11.00;10.00;5.00
12246;PMS7003;6186;52.022;4.692;2024-01-07T05:23:14;12.25;11.00;5.00
12246;PMS7003;6186;52.022;4.692;2024-01-07T05:25:39;13.67;13.67;5.00
12246;PMS7003;6186;52.022;4.692;2024-01-07T05:28:04;10.33;8.67;4.00
12246;PMS7003;6186;52.022;4.692;2024-01-07T05:30:30;16.00;13.00;6.33
12246;PMS7003;6186;52.022;4.692;2024-01-07T05:32:55;17.00;13.00;7.00
12246;PMS7003;6186;52.022;4.692;2024-01-07T05:35:20;13.67;10.33;5.00
12246;PMS7003;6186;52.022;4.692;2024-01-07T05:37:45;13.33;12.33;5.00
12246;PMS7003;6186;52.022;4.692;2024-01-07T05:40:11;13.33;11.00;5.00
12246;PMS7003;6186;52.022;4.692;2024-01-07T05:42:36;12.33;10.33;4.00
12246;PMS7003;6186;52.022;4.692;2024-01-07T05:45:01;14.00;13.00;5.00
12246;PMS7003;6186;52.022;4.692;2024-01-07T05:47:27;10.67;8.67;4.33
12246;PMS7003;6186;52.022;4.692;2024-01-07T05:49:52;13.33;12.33;5.00
12246;PMS7003;6186;52.022;4.692;2024-01-07T05:52:17;13.67;11.00;5.67
12246;PMS7003;6186;52.022;4.692;2024-01-07T05:54:42;10.33;10.00;4.00
12246;PMS7003;6186;52.022;4.692;2024-01-07T05:57:07;13.00;12.33;5.67
12246;PMS7003;6186;52.022;4.692;2024-01-07T05:59:33;10.33;10.33;5.67
12246;PMS7003;6186;52.022;4.692;2024-01-07T06:01:58;13.33;11.00;5.00
12246;PMS7003;6186;52.022;4.692;2024-01-07T06:04:24;14.25;11.00;5.00
12246;PMS7003;6186;52.022;4.692;2024-01-07T06:06:49;13.67;11.67;5.00
12246;PMS7003;6186;52.022;4.692;2024-01-07T06:09:14;12.33;10.00;4.00
12246;PMS7003;6186;52.022;4.692;2024-01-07T06:11:39;13.33;10.67;5.00
12246;PMS7003;6186;52.022;4.692;2024-01-07T06:14:05;11.67;11.67;4.33
12246;PMS7003;6186;52.022;4.692;2024-01-07T06:16:30;13.00;10.67;5.00
12246;PMS7003;6186;52.022;4.692;2024-01-07T06:18:55;11.00;10.00;4.00
12246;PMS7003;6186;52.022;4.692;2024-01-07T06:21:20;12.33;10.00;5.00
12246;PMS7003;6186;52.022;4.692;2024-01-07T06:23:46;13.67;11.00;5.00
12246;PMS7003;6186;52.022;4.692;2024-01-07T06:26:11;13.67;11.33;4.67
12246;PMS7003;6186;52.022;4.692;2024-01-07T06:28:36;12.67;12.00;5.67
12246;PMS7003;6186;52.022;4.692;2024-01-07T06:31:04;16.00;13.00;5.00
12246;PMS7003;6186;52.022;4.692;2024-01-07T06:33:29;11.50;11.00;5.00
12246;PMS7003;6186;52.022;4.692;2024-01-07T06:35:55;17.00;15.00;7.00
12246;PMS7003;6186;52.022;4.692;2024-01-07T06:38:20;13.33;10.67;5.00
12246;PMS7003;6186;52.022;4.692;2024-01-07T06:40:45;16.67;13.67;7.00
12246;PMS7003;6186;52.022;4.692;2024-01-07T06:43:10;14.67;11.33;5.00
12246;PMS7003;6186;52.022;4.692;2024-01-07T06:45:36;14.00;11.33;6.33
12246;PMS7003;6186;52.022;4.692;2024-01-07T06:48:01;14.00;10.33;4.33
12246;PMS7003;6186;52.022;4.692;2024-01-07T06:50:26;14.33;12.00;5.00
12246;PMS7003;6186;52.022;4.692;2024-01-07T06:52:51;12.00;10.67;5.33
12246;PMS7003;6186;52.022;4.692;2024-01-07T06:55:16;15.67;14.00;7.00
12246;PMS7003;6186;52.022;4.692;2024-01-07T06:57:42;10.33;10.00;4.00
12246;PMS7003;6186;52.022;4.692;2024-01-07T07:00:07;11.00;11.00;4.67
12246;PMS7003;6186;52.022;4.692;2024-01-07T07:02:32;13.00;10.33;4.00
12246;PMS7003;6186;52.022;4.692;2024-01-07T07:04:58;15.00;12.00;5.00
12246;PMS7003;6186;52.022;4.692;2024-01-07T07:07:23;12.33;10.33;4.00
12246;PMS7003;6186;52.022;4.692;2024-01-07T07:09:48;14.67;10.67;4.33
12246;PMS7003;6186;52.022;4.692;2024-01-07T07:12:13;12.33;12.33;5.00
12246;PMS7003;6186;52.022;4.692;2024-01-07T07:14:39;13.00;11.00;6.33
12246;PMS7003;6186;52.022;4.692;2024-01-07T07:17:04;13.00;12.33;5.00
12246;PMS7003;6186;52.022;4.692;2024-01-07T07:19:29;11.67;10.33;5.00
12246;PMS7003;6186;52.022;4.692;2024-01-07T07:21:54;11.00;10.67;7.00
12246;PMS7003;6186;52.022;4.692;2024-01-07T07:24:19;11.00;9.33;4.00
12246;PMS7003;6186;52.022;4.692;2024-01-07T07:26:45;13.67;12.33;4.33
12246;PMS7003;6186;52.022;4.692;2024-01-07T07:29:10;13.67;11.00;5.00
12246;PMS7003;6186;52.022;4.692;2024-01-07T07:31:35;15.33;13.00;5.00
12246;PMS7003;6186;52.022;4.692;2024-01-07T07:34:03;13.25;12.25;5.00
12246;PMS7003;6186;52.022;4.692;2024-01-07T07:36:28;12.50;11.00;5.00
12246;PMS7003;6186;52.022;4.692;2024-01-07T07:38:53;10.00;8.67;4.00
12246;PMS7003;6186;52.022;4.692;2024-01-07T07:41:19;14.00;12.67;7.00
12246;PMS7003;6186;52.022;4.692;2024-01-07T07:43:44;10.00;8.00;4.00
12246;PMS7003;6186;52.022;4.692;2024-01-07T07:46:09;14.33;11.67;5.00
12246;PMS7003;6186;52.022;4.692;2024-01-07T07:48:34;13.00;11.00;4.00
12246;PMS7003;6186;52.022;4.692;2024-01-07T07:51:00;11.67;11.33;5.00
12246;PMS7003;6186;52.022;4.692;2024-01-07T07:53:25;11.00;10.00;4.67
12246;PMS7003;6186;52.022;4.692;2024-01-07T07:55:50;12.00;10.00;5.00
12246;PMS7003;6186;52.022;4.692;2024-01-07T07:58:15;11.33;10.33;4.33
12246;PMS7003;6186;52.022;4.692;2024-01-07T08:00:40;9.33;9.33;4.00
12246;PMS7003;6186;52.022;4.692;2024-01-07T08:03:06;11.00;8.67;4.67
12246;PMS7003;6186;52.022;4.692;2024-01-07T08:05:31;11.00;10.00;4.33
12246;PMS7003;6186;52.022;4.692;2024-01-07T08:07:56;11.00;10.00;4.33
12246;PMS7003;6186;52.022;4.692;2024-01-07T08:10:22;11.67;11.00;4.67
12246;PMS7003;6186;52.022;4.692;2024-01-07T08:12:47;10.33;8.00;2.67
12246;PMS7003;6186;52.022;4.692;2024-01-07T08:15:12;10.67;9.33;4.00
12246;PMS7003;6186;52.022;4.692;2024-01-07T08:17:37;10.33;10.00;4.33
12246;PMS7003;6186;52.022;4.692;2024-01-07T08:20:02;10.33;7.33;4.00
12246;PMS7003;6186;52.022;4.692;2024-01-07T08:22:28;12.00;9.33;4.00
12246;PMS7003;6186;52.022;4.692;2024-01-07T08:24:53;11.00;9.33;3.33
12246;PMS7003;6186;52.022;4.692;2024-01-07T08:27:18;9.33;8.00;4.00
12246;PMS7003;6186;52.022;4.692;2024-01-07T08:29:44;12.33;11.67;4.00
12246;PMS7003;6186;52.022;4.692;2024-01-07T08:32:09;14.33;10.33;5.00
12246;PMS7003;6186;52.022;4.692;2024-01-07T08:34:34;9.33;9.33;5.00
12246;PMS7003;6186;52.022;4.692;2024-01-07T08:36:59;10.00;7.67;4.00
12246;PMS7003;6186;52.022;4.692;2024-01-07T08:39:25;8.00;7.67;4.00
12246;PMS7003;6186;52.022;4.692;2024-01-07T08:41:50;11.00;10.00;4.00
12246;PMS7003;6186;52.022;4.692;2024-01-07T08:44:15;10.33;10.00;4.33
12246;PMS7003;6186;52.022;4.692;2024-01-07T08:46:41;11.00;10.00;4.00
12246;PMS7003;6186;52.022;4.692;2024-01-07T08:49:06;10.67;10.00;4.00
12246;PMS7003;6186;52.022;4.692;2024-01-07T08:51:31;10.33;8.33;4.00
12246;PMS7003;6186;52.022;4.692;2024-01-07T08:53:57;10.33;9.33;4.00
12246;PMS7003;6186;52.022;4.692;2024-01-07T08:56:22;14.00;10.75;5.25
12246;PMS7003;6186;52.022;4.692;2024-01-07T08:58:48;11.00;10.00;5.00
12246;PMS7003;6186;52.022;4.692;2024-01-07T09:01:13;16.00;11.00;4.00
12246;PMS7003;6186;52.022;4.692;2024-01-07T09:03:38;11.00;10.00;5.00
12246;PMS7003;6186;52.022;4.692;2024-01-07T09:06:03;12.33;11.33;5.67
12246;PMS7003;6186;52.022;4.692;2024-01-07T09:08:29;10.67;10.00;5.00
12246;PMS7003;6186;52.022;4.692;2024-01-07T09:10:54;11.33;10.00;5.00
12246;PMS7003;6186;52.022;4.692;2024-01-07T09:13:19;13.33;10.00;4.00
12246;PMS7003;6186;52.022;4.692;2024-01-07T09:15:44;10.67;10.00;4.67
12246;PMS7003;6186;52.022;4.692;2024-01-07T09:18:10;12.33;11.00;5.00
12246;PMS7003;6186;52.022;4.692;2024-01-07T09:20:35;10.00;10.00;4.33
12246;PMS7003;6186;52.022;4.692;2024-01-07T09:23:00;12.00;11.00;4.67
12246;PMS7003;6186;52.022;4.692;2024-01-07T09:25:25;11.00;8.67;4.00
12246;PMS7003;6186;52.022;4.692;2024-01-07T09:27:51;8.67;8.00;4.00
12246;PMS7003;6186;52.022;4.692;2024-01-07T09:30:16;11.33;9.67;3.33
12246;PMS7003;6186;52.022;4.692;2024-01-07T09:32:41;11.00;8.33;4.00
12246;PMS7003;6186;52.022;4.692;2024-01-07T09:35:07;10.00;8.00;4.00
12246;PMS7003;6186;52.022;4.692;2024-01-07T09:37:32;11.50;10.25;4.00
12246;PMS7003;6186;52.022;4.692;2024-01-07T09:39:58;11.67;10.00;4.00
12246;PMS7003;6186;52.022;4.692;2024-01-07T09:42:23;10.00;8.00;4.00
12246;PMS7003;6186;52.022;4.692;2024-01-07T09:44:48;13.00;10.00;4.67
12246;PMS7003;6186;52.022;4.692;2024-01-07T09:47:15;8.75;8.25;3.50
12246;PMS7003;6186;52.022;4.692;2024-01-07T09:49:41;13.33;10.67;5.00
12246;PMS7003;6186;52.022;4.692;2024-01-07T09:52:08;8.25;8.25;4.25
12246;PMS7003;6186;52.022;4.692;2024-01-07T09:54:38;10.75;9.50;4.00
12246;PMS7003;6186;52.022;4.692;2024-01-07T09:57:05;16.00;14.75;5.25
12246;PMS7003;6186;52.022;4.692;2024-01-07T09:59:32;12.25;9.50;5.00
12246;PMS7003;6186;52.022;4.692;2024-01-07T10:01:58;11.25;9.75;4.00
12246;PMS7003;6186;52.022;4.692;2024-01-07T10:04:24;11.00;10.00;4.67
12246;PMS7003;6186;52.022;4.692;2024-01-07T10:06:50;9.75;8.25;4.00
12246;PMS7003;6186;52.022;4.692;2024-01-07T10:09:17;10.67;10.00;3.33
12246;PMS7003;6186;52.022;4.692;2024-01-07T10:11:43;11.25;10.25;4.25
12246;PMS7003;6186;52.022;4.692;2024-01-07T10:14:09;10.00;8.00;4.25
12246;PMS7003;6186;52.022;4.692;2024-01-07T10:16:34;10.00;8.67;4.33
12246;PMS7003;6186;52.022;4.692;2024-01-07T10:18:59;10.00;9.33;3.33
12246;PMS7003;6186;52.022;4.692;2024-01-07T10:21:25;10.00;9.00;4.00
12246;PMS7003;6186;52.022;4.692;2024-01-07T10:23:50;8.67;8.00;4.00
12246;PMS7003;6186;52.022;4.692;2024-01-07T10:26:15;8.33;7.00;3.33
12246;PMS7003;6186;52.022;4.692;2024-01-07T10:28:40;11.33;8.67;4.00
12246;PMS7003;6186;52.022;4.692;2024-01-07T10:31:06;10.00;8.00;4.00
12246;PMS7003;6186;52.022;4.692;2024-01-07T10:33:31;7.67;7.67;4.00
12246;PMS7003;6186;52.022;4.692;2024-01-07T10:35:59;7.00;7.00;2.25
12246;PMS7003;6186;52.022;4.692;2024-01-07T10:38:27;12.00;8.25;2.25
12246;PMS7003;6186;52.022;4.692;2024-01-07T10:40:52;6.67;6.33;2.00
12246;PMS7003;6186;52.022;4.692;2024-01-07T10:43:20;8.25;7.00;3.00
12246;PMS7003;6186;52.022;4.692;2024-01-07T10:45:47;7.00;7.00;2.00
12246;PMS7003;6186;52.022;4.692;2024-01-07T10:48:13;7.00;7.00;2.00
12246;PMS7003;6186;52.022;4.692;2024-01-07T10:50:43;7.25;6.75;2.25
12246;PMS7003;6186;52.022;4.692;2024-01-07T10:53:10;6.75;6.50;2.00
12246;PMS7003;6186;52.022;4.692;2024-01-07T10:55:42;7.50;5.50;2.25
12246;PMS7003;6186;52.022;4.692;2024-01-07T10:58:17;7.00;7.00;2.25
12246;PMS7003;6186;52.022;4.692;2024-01-07T11:00:44;8.00;7.00;2.00
12246;PMS7003;6186;52.022;4.692;2024-01-07T11:03:27;7.00;5.50;2.00
12246;PMS7003;6186;52.022;4.692;2024-01-07T11:06:03;8.00;7.25;1.75
12246;PMS7003;6186;52.022;4.692;2024-01-07T11:08:43;8.50;7.00;1.25
12246;PMS7003;6186;52.022;4.692;2024-01-07T11:11:26;7.00;6.00;3.00
12246;PMS7003;6186;52.022;4.692;2024-01-07T11:13:56;5.50;5.50;2.00
12246;PMS7003;6186;52.022;4.692;2024-01-07T11:16:40;7.00;7.00;2.00
12246;PMS7003;6186;52.022;4.692;2024-01-07T11:19:09;7.75;7.00;2.00
12246;PMS7003;6186;52.022;4.692;2024-01-07T11:21:37;7.25;7.00;2.00
12246;PMS7003;6186;52.022;4.692;2024-01-07T11:24:28;8.50;7.00;2.50
12246;PMS7003;6186;52.022;4.692;2024-01-07T11:27:05;11.00;8.25;4.00
12246;PMS7003;6186;52.022;4.692;2024-01-07T11:29:33;9.33;8.00;2.67
12246;PMS7003;6186;52.022;4.692;2024-01-07T11:32:00;8.75;7.25;2.50
12246;PMS7003;6186;52.022;4.692;2024-01-07T11:34:40;6.33;6.33;2.00
12246;PMS7003;6186;52.022;4.692;2024-01-07T11:37:07;6.50;6.50;2.00
12246;PMS7003;6186;52.022;4.692;2024-01-07T11:39:35;10.25;8.00;4.00
12246;PMS7003;6186;52.022;4.692;2024-01-07T11:42:01;7.33;7.00;4.00
12246;PMS7003;6186;52.022;4.692;2024-01-07T11:44:28;6.60;6.60;2.80
12246;PMS7003;6186;52.022;4.692;2024-01-07T11:46:54;6.50;6.50;3.00
12246;PMS7003;6186;52.022;4.692;2024-01-07T11:49:19;5.50;5.50;2.00
12246;PMS7003;6186;52.022;4.692;2024-01-07T11:51:44;5.00;5.00;1.75
12246;PMS7003;6186;52.022;4.692;2024-01-07T11:54:09;9.50;6.50;2.00
12246;PMS7003;6186;52.022;4.692;2024-01-07T11:56:35;5.50;5.00;2.00
12246;PMS7003;6186;52.022;4.692;2024-01-07T11:59:00;5.50;5.50;2.25
12246;PMS7003;6186;52.022;4.692;2024-01-07T12:01:25;9.00;7.75;2.00
12246;PMS7003;6186;52.022;4.692;2024-01-07T12:03:51;9.00;7.00;2.00
12246;PMS7003;6186;52.022;4.692;2024-01-07T12:06:16;5.00;5.00;2.00
12246;PMS7003;6186;52.022;4.692;2024-01-07T12:08:41;6.50;6.50;2.25
12246;PMS7003;6186;52.022;4.692;2024-01-07T12:11:07;7.20;6.00;2.00
12246;PMS7003;6186;52.022;4.692;2024-01-07T12:13:33;5.00;5.00;2.00
12246;PMS7003;6186;52.022;4.692;2024-01-07T12:15:59;6.00;6.00;2.00
12246;PMS7003;6186;52.022;4.692;2024-01-07T12:18:25;6.00;5.00;1.00
12246;PMS7003;6186;52.022;4.692;2024-01-07T12:20:56;4.50;4.50;2.00
12246;PMS7003;6186;52.022;4.692;2024-01-07T12:23:22;6.40;5.40;2.00
12246;PMS7003;6186;52.022;4.692;2024-01-07T12:25:47;6.25;5.50;2.00
12246;PMS7003;6186;52.022;4.692;2024-01-07T12:28:13;6.25;6.00;2.00
12246;PMS7003;6186;52.022;4.692;2024-01-07T12:30:38;5.50;5.00;2.00
12246;PMS7003;6186;52.022;4.692;2024-01-07T12:33:04;5.00;5.00;2.00
12246;PMS7003;6186;52.022;4.692;2024-01-07T12:35:29;5.60;5.60;2.00
12246;PMS7003;6186;52.022;4.692;2024-01-07T12:37:55;6.25;6.00;2.00
12246;PMS7003;6186;52.022;4.692;2024-01-07T12:40:20;5.25;5.00;2.00
12246;PMS7003;6186;52.022;4.692;2024-01-07T12:42:45;5.50;5.50;2.00
12246;PMS7003;6186;52.022;4.692;2024-01-07T12:45:11;5.50;5.00;2.00
12246;PMS7003;6186;52.022;4.692;2024-01-07T12:47:37;5.40;5.00;2.00
12246;PMS7003;6186;52.022;4.692;2024-01-07T12:50:03;5.00;5.00;2.00
12246;PMS7003;6186;52.022;4.692;2024-01-07T12:52:28;4.25;4.25;1.50
12246;PMS7003;6186;52.022;4.692;2024-01-07T12:54:53;5.50;5.50;1.00
12246;PMS7003;6186;52.022;4.692;2024-01-07T12:57:18;5.00;5.00;1.25
12246;PMS7003;6186;52.022;4.692;2024-01-07T12:59:44;3.25;3.25;1.00
12246;PMS7003;6186;52.022;4.692;2024-01-07T13:02:09;4.00;4.00;1.00
12246;PMS7003;6186;52.022;4.692;2024-01-07T13:04:34;4.00;4.00;1.00
12246;PMS7003;6186;52.022;4.692;2024-01-07T13:06:59;6.50;4.00;1.00
12246;PMS7003;6186;52.022;4.692;2024-01-07T13:09:25;4.00;4.00;1.00
12246;PMS7003;6186;52.022;4.692;2024-01-07T13:11:50;5.25;4.00;1.00
12246;PMS7003;6186;52.022;4.692;2024-01-07T13:14:15;5.25;5.00;2.00
12246;PMS7003;6186;52.022;4.692;2024-01-07T13:16:40;4.50;3.00;2.00
12246;PMS7003;6186;52.022;4.692;2024-01-07T13:19:05;5.00;3.00;1.00
12246;PMS7003;6186;52.022;4.692;2024-01-07T13:21:31;4.75;4.75;1.00
12246;PMS7003;6186;52.022;4.692;2024-01-07T13:23:56;3.25;3.00;1.00
12246;PMS7003;6186;52.022;4.692;2024-01-07T13:26:21;2.00;2.00;0.00
12246;PMS7003;6186;52.022;4.692;2024-01-07T13:28:46;5.00;5.00;1.50
12246;PMS7003;6186;52.022;4.692;2024-01-07T13:31:12;2.75;2.75;1.00
12246;PMS7003;6186;52.022;4.692;2024-01-07T13:33:37;4.25;4.25;1.00
12246;PMS7003;6186;52.022;4.692;2024-01-07T13:36:02;5.00;5.00;1.00
12246;PMS7003;6186;52.022;4.692;2024-01-07T13:38:27;4.00;4.00;1.00
12246;PMS7003;6186;52.022;4.692;2024-01-07T13:40:53;3.50;3.50;1.00
12246;PMS7003;6186;52.022;4.692;2024-01-07T13:43:18;2.50;2.50;1.00
12246;PMS7003;6186;52.022;4.692;2024-01-07T13:45:43;5.00;5.00;2.00
12246;PMS7003;6186;52.022;4.692;2024-01-07T13:48:08;3.50;3.50;1.00
12246;PMS7003;6186;52.022;4.692;2024-01-07T13:50:34;3.50;2.50;1.00
12246;PMS7003;6186;52.022;4.692;2024-01-07T13:52:59;2.50;2.50;0.25
12246;PMS7003;6186;52.022;4.692;2024-01-07T13:55:24;4.00;2.00;0.00
12246;PMS7003;6186;52.022;4.692;2024-01-07T13:57:49;4.00;4.00;1.00
12246;PMS7003;6186;52.022;4.692;2024-01-07T14:00:15;4.00;4.00;1.00
12246;PMS7003;6186;52.022;4.692;2024-01-07T14:02:40;2.00;2.00;0.25
12246;PMS7003;6186;52.022;4.692;2024-01-07T14:05:06;3.00;2.50;0.00
12246;PMS7003;6186;52.022;4.692;2024-01-07T14:07:31;4.60;4.40;1.00
12246;PMS7003;6186;52.022;4.692;2024-01-07T14:09:56;2.00;2.00;0.50
12246;PMS7003;6186;52.022;4.692;2024-01-07T14:12:22;4.75;4.00;1.00